createdAt,value
2022-07-29T00:00:24.540Z,100430.76
2022-07-29T00:04:43.443Z,100427.45
2022-07-29T00:08:51.736Z,100431.08
2022-07-29T00:13:00.973Z,100430.21
2022-07-29T00:17:09.674Z,100434.54
2022-07-29T00:21:17.906Z,100434.61
2022-07-29T00:25:25.544Z,100435.64
2022-07-29T00:29:34.726Z,100437.88
2022-07-29T00:33:43.255Z,100427.67
2022-07-29T00:37:51.398Z,100429.15
2022-07-29T00:41:58.848Z,100426.29
2022-07-29T00:46:06.849Z,100427.39
2022-07-29T00:50:16.767Z,100433.59
2022-07-29T00:54:24.478Z,100430.33
2022-07-29T00:58:32.708Z,100427.96
2022-07-29T01:02:40.853Z,100434.30
2022-07-29T01:06:48.729Z,100428.99
2022-07-29T01:10:57.496Z,100425.96
2022-07-29T01:15:08.878Z,100421.90
2022-07-29T01:19:34.099Z,100411.52
2022-07-29T01:23:56.463Z,100412.38
2022-07-29T01:28:17.544Z,100408.14
2022-07-29T01:32:30.033Z,100411.07
2022-07-29T01:36:42.025Z,100412.09
2022-07-29T01:40:54.189Z,100405.45
2022-07-29T01:45:05.354Z,100401.48
2022-07-29T01:49:16.154Z,100400.95
2022-07-29T01:53:37.775Z,100396.49
2022-07-29T01:57:49.096Z,100391.81
2022-07-29T02:01:59.973Z,100390.34
2022-07-29T02:06:08.679Z,100386.02
2022-07-29T02:10:17.446Z,100379.89
2022-07-29T02:14:26.639Z,100374.22
2022-07-29T02:18:34.720Z,100373.30
2022-07-29T02:22:43.721Z,100372.35
2022-07-29T02:26:54.479Z,100370.69
2022-07-29T02:31:03.562Z,100374.42
2022-07-29T02:35:12.705Z,100373.04
2022-07-29T02:39:21.252Z,100378.37
2022-07-29T02:43:30.033Z,100381.38
2022-07-29T02:47:42.327Z,100386.29
2022-07-29T02:51:53.981Z,100385.48
2022-07-29T02:56:04.443Z,100385.04
2022-07-29T03:00:14.627Z,100386.90
2022-07-29T03:04:23.970Z,100384.58
2022-07-29T03:08:32.197Z,100383.83
2022-07-29T03:12:40.023Z,100382.14
2022-07-29T03:16:47.841Z,100383.09
2022-07-29T03:20:55.444Z,100383.55
2022-07-29T03:25:12.205Z,100381.34
2022-07-29T03:29:21.070Z,100387.27
2022-07-29T03:33:31.545Z,100389.59
2022-07-29T03:37:38.816Z,100391.84
2022-07-29T03:41:47.455Z,100397.95
2022-07-29T03:45:57.089Z,100405.38
2022-07-29T03:50:10.753Z,100404.30
2022-07-29T03:54:21.425Z,100407.77
2022-07-29T03:58:30.813Z,100404.75
2022-07-29T04:02:41.166Z,100401.84
2022-07-29T04:06:49.862Z,100404.94
2022-07-29T04:10:57.681Z,100404.65
2022-07-29T04:15:05.698Z,100396.29
2022-07-29T04:19:13.399Z,100389.70
2022-07-29T04:23:20.661Z,100390.19
2022-07-29T04:27:28.195Z,100392.79
2022-07-29T04:31:35.983Z,100390.60
2022-07-29T04:35:49.933Z,100389.02
2022-07-29T04:39:58.660Z,100383.38
2022-07-29T04:44:07.442Z,100381.96
2022-07-29T04:48:16.784Z,100381.27
2022-07-29T04:52:24.594Z,100383.38
2022-07-29T04:56:33.168Z,100389.14
2022-07-29T05:00:41.216Z,100387.20
2022-07-29T05:04:49.385Z,100386.91
2022-07-29T05:08:57.355Z,100388.75
2022-07-29T05:13:05.284Z,100386.40
2022-07-29T05:17:13.031Z,100388.98
2022-07-29T05:21:20.519Z,100383.33
2022-07-29T05:25:44.367Z,100384.72
2022-07-29T05:29:52.639Z,100388.52
2022-07-29T05:33:59.735Z,100386.67
2022-07-29T05:38:07.383Z,100390.00
2022-07-29T05:42:17.926Z,100387.45
2022-07-29T05:46:30.189Z,100390.04
2022-07-29T05:50:44.274Z,100387.95
2022-07-29T05:54:59.939Z,100383.11
2022-07-29T05:59:17.937Z,100387.55
2022-07-29T06:03:26.649Z,100387.70
2022-07-29T06:07:36.546Z,100384.51
2022-07-29T06:11:49.718Z,100389.12
2022-07-29T06:15:57.726Z,100381.80
2022-07-29T06:20:15.318Z,100381.86
2022-07-29T06:24:23.624Z,100378.25
2022-07-29T06:28:31.257Z,100378.92
2022-07-29T06:32:43.442Z,100383.42
2022-07-29T06:36:55.567Z,100386.59
2022-07-29T06:41:08.994Z,100389.50
2022-07-29T06:45:23.455Z,100391.63
2022-07-29T06:49:38.393Z,100388.98
2022-07-29T06:54:00.441Z,100389.21
2022-07-29T06:58:11.379Z,100388.34
2022-07-29T07:02:20.827Z,100385.18
2022-07-29T07:06:28.757Z,100385.52
2022-07-29T07:10:52.518Z,100384.14
2022-07-29T07:15:04.422Z,100385.58
2022-07-29T07:19:20.913Z,100380.05
2022-07-29T07:23:33.402Z,100380.95
2022-07-29T07:27:47.120Z,100381.70
2022-07-29T07:32:00.495Z,100381.30
2022-07-29T07:36:11.698Z,100375.03
2022-07-29T07:40:23.064Z,100373.95
2022-07-29T07:44:30.483Z,100377.05
2022-07-29T07:48:39.064Z,100380.40
2022-07-29T07:52:55.994Z,100381.23
2022-07-29T07:57:04.015Z,100378.17
2022-07-29T08:01:13.009Z,100372.24
2022-07-29T08:05:24.696Z,100363.55
2022-07-29T08:09:36.878Z,100367.95
2022-07-29T08:13:44.607Z,100373.19
2022-07-29T08:17:53.048Z,100372.06
2022-07-29T08:22:00.419Z,100368.35
2022-07-29T08:26:11.749Z,100361.60
2022-07-29T08:30:19.127Z,100363.02
2022-07-29T08:34:29.689Z,100363.48
2022-07-29T08:38:38.240Z,100360.52
2022-07-29T08:42:46.056Z,100369.29
2022-07-29T08:46:58.406Z,100368.04
2022-07-29T08:51:24.695Z,100364.13
2022-07-29T08:55:39.686Z,100354.02
2022-07-29T08:59:55.354Z,100352.52
2022-07-29T09:04:06.093Z,100351.98
2022-07-29T09:08:19.590Z,100353.56
2022-07-29T09:12:38.069Z,100346.52
2022-07-29T09:17:04.353Z,100346.02
2022-07-29T09:21:39.092Z,100339.19
2022-07-29T09:25:52.594Z,100343.52
2022-07-29T09:30:13.469Z,100341.02
2022-07-29T09:34:27.441Z,100339.31
2022-07-29T09:38:36.440Z,100331.16
2022-07-29T09:42:45.949Z,100330.68
2022-07-29T09:47:08.239Z,100330.16
2022-07-29T09:51:37.893Z,100318.50
2022-07-29T09:55:52.834Z,100317.67
2022-07-29T10:00:10.936Z,100315.92
2022-07-29T10:04:23.843Z,100308.20
2022-07-29T10:08:37.719Z,100309.13
2022-07-29T10:12:56.521Z,100304.34
2022-07-29T10:17:08.621Z,100303.20
2022-07-29T10:21:34.918Z,100300.55
2022-07-29T10:25:46.596Z,100298.90
2022-07-29T10:30:04.456Z,100300.71
2022-07-29T10:34:22.113Z,100292.20
2022-07-29T10:43:20.346Z,100288.99
2022-07-29T10:47:31.427Z,100279.60
2022-07-29T10:51:58.155Z,100282.56
2022-07-29T10:56:13.436Z,100278.58
2022-07-29T11:00:33.269Z,100275.67
2022-07-29T11:05:05.084Z,100270.13
2022-07-29T11:09:25.727Z,100266.66
2022-07-29T11:13:53.152Z,100270.38
2022-07-29T11:18:17.619Z,100274.59
2022-07-29T11:22:45.917Z,100269.52
2022-07-29T11:27:23.191Z,100271.85
2022-07-29T11:31:44.028Z,100274.36
2022-07-29T11:36:16.572Z,100275.11
2022-07-29T11:40:24.697Z,100280.82
2022-07-29T11:44:58.347Z,100279.84
2022-07-29T11:49:12.714Z,100280.35
2022-07-29T11:53:25.315Z,100278.94
2022-07-29T11:57:37.988Z,100279.48
2022-07-29T12:02:33.255Z,100275.41
2022-07-29T12:06:26.493Z,100276.33
2022-07-29T12:10:38.576Z,100268.73
2022-07-29T12:14:49.979Z,100263.52
2022-07-29T12:19:07.110Z,100257.23
2022-07-29T12:23:23.959Z,100254.86
2022-07-29T12:27:40.531Z,100252.46
2022-07-29T12:31:48.869Z,100244.14
2022-07-29T12:36:06.760Z,100239.07
2022-07-29T12:40:18.613Z,100235.73
2022-07-29T12:44:27.599Z,100228.85
2022-07-29T12:48:39.862Z,100226.76
2022-07-29T12:52:50.700Z,100221.38
2022-07-29T12:57:05.262Z,100214.64
2022-07-29T13:01:17.064Z,100212.05
2022-07-29T13:05:26.434Z,100216.62
2022-07-29T13:09:42.169Z,100210.91
2022-07-29T13:14:07.034Z,100213.02
2022-07-29T13:18:31.104Z,100211.82
2022-07-29T13:22:40.091Z,100204.73
2022-07-29T13:26:53.091Z,100201.21
2022-07-29T13:31:02.818Z,100199.05
2022-07-29T13:35:15.958Z,100195.20
2022-07-29T13:39:25.051Z,100194.48
2022-07-29T13:43:32.295Z,100195.88
2022-07-29T13:47:41.017Z,100184.45
2022-07-29T13:51:51.861Z,100187.34
2022-07-29T13:55:59.835Z,100191.58
2022-07-29T14:00:12.233Z,100191.02
2022-07-29T14:04:19.915Z,100182.50
2022-07-29T14:08:28.754Z,100180.04
2022-07-29T14:12:36.134Z,100177.94
2022-07-29T14:16:47.759Z,100177.02
2022-07-29T14:20:58.477Z,100173.70
2022-07-29T14:25:14.671Z,100176.34
2022-07-29T14:29:37.016Z,100181.27
2022-07-29T14:33:49.138Z,100176.35
2022-07-29T14:37:58.615Z,100175.58
2022-07-29T14:42:07.243Z,100172.85
2022-07-29T14:46:15.400Z,100167.53
2022-07-29T14:50:29.914Z,100162.19
2022-07-29T14:54:39.619Z,100157.30
2022-07-29T14:58:51.626Z,100157.64
2022-07-29T15:03:02.389Z,100158.94
2022-07-29T15:07:13.123Z,100159.21
2022-07-29T15:11:21.385Z,100162.73
2022-07-29T15:15:28.984Z,100151.79
2022-07-29T15:19:37.002Z,100143.20
2022-07-29T15:23:45.182Z,100143.42
2022-07-29T15:27:54.798Z,100143.95
2022-07-29T15:32:06.212Z,100142.40
2022-07-29T15:36:35.629Z,100146.83
2022-07-29T15:40:44.686Z,100146.71
2022-07-29T15:44:52.671Z,100142.42
2022-07-29T15:49:00.566Z,100145.20
2022-07-29T15:53:09.167Z,100134.92
2022-07-29T15:57:19.143Z,100135.58
2022-07-29T16:01:27.521Z,100137.89
2022-07-29T16:05:36.279Z,100134.17
2022-07-29T16:09:49.488Z,100129.43
2022-07-29T16:14:00.325Z,100131.67
2022-07-29T16:18:09.150Z,100128.48
2022-07-29T16:22:17.307Z,100132.28
2022-07-29T16:26:24.930Z,100130.70
2022-07-29T16:30:34.372Z,100129.89
2022-07-29T16:34:41.933Z,100129.88
2022-07-29T16:38:49.748Z,100125.32
2022-07-29T16:42:57.700Z,100122.06
2022-07-29T16:47:05.279Z,100116.14
2022-07-29T16:51:14.448Z,100119.14
2022-07-29T16:55:23.048Z,100117.59
2022-07-29T16:59:31.203Z,100111.70
2022-07-29T17:04:00.346Z,100116.98
2022-07-29T17:08:08.705Z,100116.06
2022-07-29T17:12:17.654Z,100116.63
2022-07-29T17:16:25.337Z,100116.48
2022-07-29T17:20:36.749Z,100119.36
2022-07-29T17:24:45.786Z,100117.24
2022-07-29T17:28:53.485Z,100118.44
2022-07-29T17:33:01.133Z,100122.66
2022-07-29T17:37:11.364Z,100127.10
2022-07-29T17:41:19.205Z,100130.23
2022-07-29T17:45:49.349Z,100130.95
2022-07-29T17:49:56.581Z,100133.54
2022-07-29T17:54:03.985Z,100137.30
2022-07-29T17:58:12.829Z,100143.20
2022-07-29T18:02:20.825Z,100148.84
2022-07-29T18:06:28.598Z,100145.09
2022-07-29T18:10:36.903Z,100143.70
2022-07-29T18:14:49.915Z,100138.41
2022-07-29T18:18:57.438Z,100139.81
2022-07-29T18:23:05.548Z,100144.19
2022-07-29T18:27:13.088Z,100145.12
2022-07-29T18:31:24.536Z,100143.79
2022-07-29T18:35:31.980Z,100136.81
2022-07-29T18:39:40.350Z,100133.84
2022-07-29T18:43:48.081Z,100134.98
2022-07-29T18:47:55.807Z,100136.59
2022-07-29T18:52:03.566Z,100141.06
2022-07-29T18:56:11.355Z,100145.06
2022-07-29T19:00:19.979Z,100144.73
2022-07-29T19:04:29.800Z,100146.63
2022-07-29T19:08:37.412Z,100142.27
2022-07-29T19:12:44.959Z,100144.31
2022-07-29T19:16:52.662Z,100151.27
2022-07-29T19:21:00.740Z,100148.74
2022-07-29T19:25:11.239Z,100149.20
2022-07-29T19:29:19.124Z,100149.71
2022-07-29T19:33:26.911Z,100148.90
2022-07-29T19:37:34.926Z,100145.21
2022-07-29T19:41:42.649Z,100138.35
2022-07-29T19:45:50.446Z,100130.84
2022-07-29T19:49:58.277Z,100127.64
2022-07-29T19:54:06.631Z,100135.70
2022-07-29T19:58:16.153Z,100133.20
2022-07-29T20:02:24.597Z,100143.11
2022-07-29T20:06:32.628Z,100143.77
2022-07-29T20:10:40.513Z,100137.44
2022-07-29T20:14:48.551Z,100134.95
2022-07-29T20:21:17.462Z,100141.86
2022-07-29T20:25:25.496Z,100143.77
2022-07-29T20:29:33.321Z,100154.40
2022-07-29T20:33:40.931Z,100164.47
2022-07-29T20:37:52.388Z,100169.63
2022-07-29T20:42:03.428Z,100176.66
2022-07-29T20:46:11.651Z,100178.64
2022-07-29T20:50:20.739Z,100180.60
2022-07-29T20:54:31.697Z,100173.66
2022-07-29T20:58:39.738Z,100167.67
2022-07-29T21:02:48.032Z,100169.10
2022-07-29T21:06:55.591Z,100160.64
2022-07-29T21:11:03.974Z,100151.14
2022-07-29T21:15:13.912Z,100148.59
2022-07-29T21:19:21.860Z,100143.92
2022-07-29T21:23:30.412Z,100140.69
2022-07-29T21:27:55.356Z,100141.47
2022-07-29T21:32:07.126Z,100138.90
2022-07-29T21:36:46.493Z,100138.98
2022-07-29T21:40:46.602Z,100144.34
2022-07-29T21:44:54.250Z,100144.05
2022-07-29T21:49:01.961Z,100150.17
2022-07-29T21:53:11.105Z,100155.44
2022-07-29T21:57:21.759Z,100153.92
2022-07-29T22:01:29.592Z,100141.83
2022-07-29T22:05:48.844Z,100138.67
2022-07-29T22:09:56.296Z,100141.21
2022-07-29T22:14:04.108Z,100142.05
2022-07-29T22:18:11.560Z,100139.41
2022-07-29T22:22:19.696Z,100131.41
2022-07-29T22:26:28.088Z,100123.28
2022-07-29T22:30:36.124Z,100126.92
2022-07-29T22:34:43.845Z,100132.94
2022-07-29T22:38:52.088Z,100119.48
2022-07-29T22:43:00.078Z,100114.67
2022-07-29T22:47:08.788Z,100109.63
2022-07-29T22:51:16.391Z,100114.23
2022-07-29T22:55:24.353Z,100111.77
2022-07-29T22:59:31.993Z,100107.13
2022-07-29T23:03:39.589Z,100099.67
2022-07-29T23:07:47.253Z,100102.23
2022-07-29T23:11:54.986Z,100098.23
2022-07-29T23:16:03.663Z,100086.16
2022-07-29T23:20:14.670Z,100084.77
2022-07-29T23:24:22.688Z,100079.46
2022-07-29T23:28:30.892Z,100074.94
2022-07-29T23:32:39.720Z,100077.70
2022-07-29T23:36:47.636Z,100074.41
2022-07-29T23:40:55.175Z,100068.83
2022-07-29T23:45:02.784Z,100067.71
2022-07-29T23:49:10.608Z,100070.55
2022-07-29T23:53:19.594Z,100071.83
2022-07-29T23:57:29.545Z,100071.06
